Time;durP1;ratioP1;P1;durP2;ratioP2;P2;SDS_P1;SDS_P2;PMS_P1;PMS_P2;Temp;Humidity;BMP_temperature;BMP_pressure;BME280_temperature;BME280_humidity;BME280_pressure;Samples;Min_cycle;Max_cycle;Signal;HPM_P1;HPM_P2
2023/04/16 00:01:19;;;;;;;3.67;1.33;;;;;;;18.97;50.07;100527.19;4863229;29;20049;-58
2023/04/16 00:03:47;;;;;;;2.22;1.15;;;;;;;18.97;50.04;100523.66;4863343;29;20068;-58
2023/04/16 00:06:15;;;;;;;6.60;1.13;;;;;;;18.98;50.28;100530.72;4863481;29;20072;-58
2023/04/16 00:08:42;;;;;;;2.90;1.05;;;;;;;18.97;50.17;100529.03;4863267;29;20069;-58
2023/04/16 00:11:10;;;;;;;4.32;1.48;;;;;;;18.97;50.24;100545.13;4863152;29;20062;-58
2023/04/16 00:13:37;;;;;;;3.03;1.00;;;;;;;18.96;50.12;100540.75;4863208;29;20053;-58
2023/04/16 00:16:05;;;;;;;3.30;1.15;;;;;;;18.96;50.16;100540.75;4863128;29;20053;-58
2023/04/16 00:18:32;;;;;;;4.90;1.25;;;;;;;18.96;50.17;100535.41;4863241;29;20412;-58
2023/04/16 00:20:59;;;;;;;4.68;1.58;;;;;;;18.96;50.23;100535.41;4863130;29;20046;-58
2023/04/16 00:23:27;;;;;;;4.05;1.33;;;;;;;18.96;50.18;100536.25;4863015;29;20042;-58
2023/04/16 00:25:58;;;;;;;5.60;1.27;;;;;;;18.96;50.18;100540.75;4863016;29;20057;-58
2023/04/16 00:28:26;;;;;;;5.07;1.20;;;;;;;18.96;50.23;100541.59;4863071;29;20052;-58
2023/04/16 00:30:54;;;;;;;4.35;1.27;;;;;;;18.94;50.34;100548.06;4863179;29;20050;-59
2023/04/16 00:33:22;;;;;;;2.78;1.30;;;;;;;18.95;50.45;100552.44;4862822;29;20068;-58
2023/04/16 00:35:50;;;;;;;2.42;1.15;;;;;;;18.95;50.09;100547.94;4862946;29;20053;-58
2023/04/16 00:38:17;;;;;;;2.80;1.27;;;;;;;18.94;50.22;100556.97;4861845;29;20061;-58
2023/04/16 00:40:44;;;;;;;2.88;1.20;;;;;;;18.95;50.30;100553.28;4861866;29;20076;-58
2023/04/16 00:43:23;;;;;;;2.85;1.27;;;;;;;18.94;50.22;100548.06;4862804;29;20060;-58
2023/04/16 00:45:55;;;;;;;3.08;0.95;;;;;;;18.95;50.30;100544.41;4862846;29;20057;-58
2023/04/16 00:48:23;;;;;;;4.72;1.42;;;;;;;18.94;50.19;100548.94;4861742;29;20412;-58
2023/04/16 00:50:50;;;;;;;3.65;1.20;;;;;;;18.94;50.38;100546.25;4861482;29;20061;-59
2023/04/16 00:53:18;;;;;;;2.45;1.27;;;;;;;18.95;50.21;100549.78;4862489;29;20060;-59
2023/04/16 00:55:45;;;;;;;2.60;1.02;;;;;;;18.95;50.49;100549.78;4861562;29;20053;-59
2023/04/16 00:58:13;;;;;;;2.80;1.35;;;;;;;18.94;50.45;100545.41;4862531;29;20050;-59
2023/04/16 01:00:40;;;;;;;3.15;1.30;;;;;;;18.95;50.48;100544.41;4861588;29;20057;-59
2023/04/16 01:03:08;;;;;;;2.95;1.05;;;;;;;18.95;50.39;100536.34;4861509;29;20057;-59
2023/04/16 01:05:36;;;;;;;2.38;1.15;;;;;;;18.95;50.28;100541.72;4862166;29;20045;-59
2023/04/16 01:08:03;;;;;;;2.45;1.10;;;;;;;18.95;50.46;100539.03;4862043;29;20072;-59
2023/04/16 01:10:31;;;;;;;2.33;1.05;;;;;;;18.94;50.38;100540.88;4861712;29;20054;-58
2023/04/16 01:12:58;;;;;;;2.10;1.00;;;;;;;18.96;50.38;100543.44;4862045;29;20053;-58
2023/04/16 01:15:25;;;;;;;2.88;1.45;;;;;;;18.94;50.40;100546.25;4862174;29;20045;-58
2023/04/16 01:17:52;;;;;;;3.33;1.50;;;;;;;18.94;50.37;100540.03;4862259;29;20057;-58
2023/04/16 01:20:20;;;;;;;3.92;1.13;;;;;;;18.94;50.39;100546.25;4862310;29;20045;-59
2023/04/16 01:22:47;;;;;;;3.58;1.20;;;;;;;18.93;50.36;100546.38;4860660;29;20064;-59
2023/04/16 01:25:15;;;;;;;3.00;1.30;;;;;;;18.93;50.34;100544.56;4862020;29;20045;-59
2023/04/16 01:27:42;;;;;;;2.40;1.05;;;;;;;18.93;50.36;100541.88;4861975;29;20090;-59
2023/04/16 01:30:10;;;;;;;3.08;1.05;;;;;;;18.94;50.34;100540.03;4862112;29;20392;-58
2023/04/16 01:32:48;;;;;;;3.58;1.10;;;;;;;18.93;50.23;100543.72;4861028;29;20061;-59
2023/04/16 01:35:17;;;;;;;3.10;1.10;;;;;;;18.93;50.36;100546.38;4860770;29;20060;-58
2023/04/16 01:37:44;;;;;;;3.90;1.02;;;;;;;18.94;50.40;100545.41;4860856;29;20060;-58
2023/04/16 01:40:11;;;;;;;2.50;1.27;;;;;;;18.92;50.31;100545.53;4861667;29;20503;-59
2023/04/16 01:42:39;;;;;;;2.88;1.27;;;;;;;18.91;50.34;100546.50;4860797;29;20068;-59
2023/04/16 01:45:07;;;;;;;2.65;1.00;;;;;;;18.93;50.53;100543.72;4861745;29;20049;-59
2023/04/16 01:47:34;;;;;;;2.97;1.40;;;;;;;18.92;50.57;100547.34;4860777;29;20053;-59
2023/04/16 01:50:03;;;;;;;2.47;1.20;;;;;;;18.92;50.31;100547.34;4860259;29;20076;-58
2023/04/16 01:52:30;;;;;;;2.75;1.20;;;;;;;18.92;50.58;100550.03;4861675;29;20064;-58
2023/04/16 01:54:57;;;;;;;2.67;1.08;;;;;;;18.91;50.56;100554.56;4860046;29;20058;-58
2023/04/16 01:57:24;;;;;;;2.85;1.48;;;;;;;18.92;50.42;100555.41;4861571;29;20056;-58
2023/04/16 01:59:52;;;;;;;3.60;1.08;;;;;;;18.90;50.41;100554.69;4861703;29;20538;-58
2023/04/16 02:02:26;;;;;;;2.47;1.17;;;;;;;18.90;50.27;100562.75;4845449;29;20547;-58
2023/04/16 02:04:58;;;;;;;2.83;1.30;;;;;;;18.91;50.47;100561.75;4861497;29;20053;-58
2023/04/16 02:07:26;;;;;;;2.67;1.15;;;;;;;18.91;50.47;100567.97;4860502;29;20053;-58
2023/04/16 02:09:53;;;;;;;2.90;1.30;;;;;;;18.91;50.56;100569.81;4861000;29;20424;-58
2023/04/16 02:12:21;;;;;;;3.22;1.45;;;;;;;18.90;50.49;100560.06;4861111;29;20061;-58
2023/04/16 02:14:49;;;;;;;2.00;1.02;;;;;;;18.90;50.50;100568.13;4861219;29;20382;-58
2023/04/16 02:17:18;;;;;;;3.88;1.30;;;;;;;18.91;50.51;100567.13;4860064;29;20053;-58
2023/04/16 02:19:48;;;;;;;2.30;1.20;;;;;;;18.90;50.47;100563.59;4861220;29;20484;-58
2023/04/16 02:22:16;;;;;;;2.75;1.15;;;;;;;18.91;50.38;100569.81;4860030;29;20057;-58
2023/04/16 02:24:44;;;;;;;3.67;1.17;;;;;;;18.91;50.50;100575.16;4859911;29;20424;-58
2023/04/16 02:27:11;;;;;;;3.25;1.15;;;;;;;18.91;50.50;100577.84;4861451;29;20404;-59
2023/04/16 02:29:39;;;;;;;2.03;1.00;;;;;;;18.91;50.55;100577.84;4860364;29;20083;-59
2023/04/16 02:32:12;;;;;;;1.88;0.98;;;;;;;18.90;50.38;100578.84;4861465;29;20061;-59
2023/04/16 02:34:43;;;;;;;3.05;1.35;;;;;;;18.90;50.45;100581.53;4859744;29;20061;-59
2023/04/16 02:37:14;;;;;;;2.42;1.35;;;;;;;18.89;50.50;100580.69;4859718;29;20068;-58
2023/04/16 02:39:42;;;;;;;2.60;1.05;;;;;;;18.89;50.36;100579.84;4859999;29;20064;-58
2023/04/16 02:42:09;;;;;;;3.80;1.30;;;;;;;18.90;50.45;100581.53;4860913;29;20072;-58
2023/04/16 02:44:37;;;;;;;2.88;1.20;;;;;;;18.90;50.48;100581.53;4860059;29;20060;-58
2023/04/16 02:47:04;;;;;;;1.90;1.10;;;;;;;18.89;50.45;100579.84;4859816;29;20069;-58
2023/04/16 02:49:32;;;;;;;2.40;1.10;;;;;;;18.89;50.55;100575.31;4859858;29;20113;-59
2023/04/16 02:51:59;;;;;;;1.90;0.77;;;;;;;18.88;50.54;100579.00;4859918;29;20053;-59
2023/04/16 02:54:26;;;;;;;2.30;1.00;;;;;;;18.89;50.48;100585.19;4860930;29;20053;-59
2023/04/16 02:56:54;;;;;;;2.33;1.08;;;;;;;18.89;50.54;100577.16;4860880;29;20060;-59
2023/04/16 02:59:21;;;;;;;2.30;0.98;;;;;;;18.88;50.57;100578.09;4860066;29;20065;-59
2023/04/16 03:01:49;;;;;;;3.95;1.13;;;;;;;18.89;50.50;100579.84;4862645;29;20060;-59
2023/04/16 03:04:16;;;;;;;3.67;1.40;;;;;;;18.88;50.60;100579.00;4864605;29;20053;-59
2023/04/16 03:06:44;;;;;;;2.50;1.30;;;;;;;18.89;50.56;100590.56;4864386;29;20057;-59
2023/04/16 03:09:11;;;;;;;3.72;1.02;;;;;;;18.88;50.56;100586.16;4862848;29;20057;-58
2023/04/16 03:11:38;;;;;;;2.78;1.15;;;;;;;18.88;50.58;100583.47;4864438;29;20046;-59
2023/04/16 03:14:06;;;;;;;4.22;1.20;;;;;;;18.88;50.57;100587.03;4863492;29;20057;-58
2023/04/16 03:16:33;;;;;;;2.08;1.08;;;;;;;18.88;50.54;100591.53;4863329;29;20049;-58
2023/04/16 03:19:00;;;;;;;5.00;1.48;;;;;;;18.87;50.44;100581.78;4864513;29;20060;-59
2023/04/16 03:21:28;;;;;;;2.22;1.02;;;;;;;18.87;50.65;100595.19;4864586;29;20057;-58
2023/04/16 03:23:56;;;;;;;2.92;1.50;;;;;;;18.87;50.48;100589.84;4864419;29;20062;-59
2023/04/16 03:26:24;;;;;;;2.70;1.10;;;;;;;18.87;50.62;100587.16;4863080;29;20056;-58
2023/04/16 03:28:51;;;;;;;2.63;1.35;;;;;;;18.87;50.68;100589.84;4863132;29;20057;-59
2023/04/16 03:31:19;;;;;;;3.97;0.98;;;;;;;18.87;50.46;100588.00;4862761;29;20109;-59
2023/04/16 03:33:46;;;;;;;3.22;1.30;;;;;;;18.87;50.65;100593.34;4863693;29;20049;-59
2023/04/16 03:36:14;;;;;;;4.05;1.30;;;;;;;18.87;50.73;100590.69;4862757;29;20057;-59
2023/04/16 03:38:41;;;;;;;3.58;1.40;;;;;;;18.88;50.78;100594.19;4862769;29;20060;-59
2023/04/16 03:41:10;;;;;;;2.65;1.25;;;;;;;18.87;50.68;100588.00;4864227;29;20053;-59
2023/04/16 03:43:37;;;;;;;2.55;1.33;;;;;;;18.86;50.61;100594.34;4864067;29;20062;-59
2023/04/16 03:46:04;;;;;;;4.38;1.35;;;;;;;18.87;50.59;100605.94;4862815;29;20060;-59
2023/04/16 03:48:32;;;;;;;2.45;1.00;;;;;;;18.86;50.56;100602.41;4862736;29;20053;-59
2023/04/16 03:50:59;;;;;;;2.95;1.15;;;;;;;18.88;50.50;100604.94;4862344;29;20053;-58
2023/04/16 03:53:27;;;;;;;3.45;1.13;;;;;;;18.86;50.68;100613.13;4862487;29;20063;-58
2023/04/16 03:55:55;;;;;;;5.05;1.25;;;;;;;18.86;50.82;100613.13;4862761;29;20053;-59
2023/04/16 03:58:23;;;;;;;3.65;1.27;;;;;;;18.86;50.83;100614.97;4862969;29;20416;-58
2023/04/16 04:00:54;;;;;;;3.15;1.23;;;;;;;18.86;50.61;100617.66;4862891;29;20061;-59
2023/04/16 04:03:21;;;;;;;3.22;1.20;;;;;;;18.85;50.68;100614.13;4862701;29;20054;-58
2023/04/16 04:05:49;;;;;;;3.55;1.33;;;;;;;18.87;50.78;100613.97;4863402;29;20041;-58
2023/04/16 04:08:29;;;;;;;3.88;1.00;;;;;;;18.86;50.81;100618.50;4862534;29;20054;-58
2023/04/16 04:10:56;;;;;;;2.83;1.33;;;;;;;18.87;50.68;100619.34;4861543;29;20065;-59
2023/04/16 04:13:24;;;;;;;2.60;1.13;;;;;;;18.86;50.90;100629.22;4862065;29;20659;-60
2023/04/16 04:15:52;;;;;;;2.65;1.30;;;;;;;18.86;50.80;100621.16;4863154;29;20052;-59
2023/04/16 04:18:21;;;;;;;3.25;1.52;;;;;;;18.86;50.74;100628.38;4862086;29;20361;-59
2023/04/16 04:20:48;;;;;;;3.85;1.20;;;;;;;18.86;50.74;100631.91;4862192;29;20060;-59
2023/04/16 04:23:18;;;;;;;2.70;1.30;;;;;;;18.86;50.79;100639.94;4861457;29;20417;-58
2023/04/16 04:25:47;;;;;;;3.15;0.98;;;;;;;18.86;50.85;100639.94;4862121;29;20053;-58
2023/04/16 04:28:14;;;;;;;2.63;1.38;;;;;;;18.85;50.84;100635.56;4863224;29;20400;-59
2023/04/16 04:30:42;;;;;;;2.08;1.08;;;;;;;18.86;50.85;100636.41;4862439;29;20053;-58
2023/04/16 04:33:09;;;;;;;3.33;1.33;;;;;;;18.84;50.81;100636.56;4861658;29;20057;-59
2023/04/16 04:35:37;;;;;;;2.38;1.00;;;;;;;18.84;50.79;100639.25;4861614;29;20398;-58
2023/04/16 04:38:05;;;;;;;3.55;1.60;;;;;;;18.85;50.75;100642.78;4862953;29;20499;-58
2023/04/16 04:40:33;;;;;;;2.38;1.00;;;;;;;18.85;50.83;100640.09;4862019;29;20054;-59
2023/04/16 04:43:03;;;;;;;4.30;1.10;;;;;;;18.85;50.61;100642.78;4861679;29;20060;-59
2023/04/16 04:45:30;;;;;;;2.55;1.05;;;;;;;18.84;50.63;100647.28;4861773;29;20397;-59
2023/04/16 04:47:58;;;;;;;3.45;1.25;;;;;;;18.85;50.86;100645.47;4861669;29;20058;-59
2023/04/16 04:50:26;;;;;;;2.22;1.10;;;;;;;18.84;50.88;100647.28;4861866;29;20396;-59
2023/04/16 04:52:53;;;;;;;5.10;1.33;;;;;;;18.83;50.75;100650.94;4861654;29;20064;-58
2023/04/16 04:55:21;;;;;;;2.75;1.00;;;;;;;18.83;50.70;100648.25;4861788;29;20412;-59
2023/04/16 04:57:49;;;;;;;3.65;1.10;;;;;;;18.84;50.70;100655.34;4861223;29;20061;-58
2023/04/16 05:00:17;;;;;;;2.38;1.00;;;;;;;18.83;50.83;100664.34;4861598;29;20057;-59
2023/04/16 05:02:52;;;;;;;2.58;1.23;;;;;;;18.83;50.73;100664.34;4861554;29;20060;-59
2023/04/16 05:05:19;;;;;;;3.42;1.20;;;;;;;18.83;50.75;100667.03;4862637;29;20053;-59
2023/04/16 05:07:47;;;;;;;2.90;1.30;;;;;;;18.83;50.71;100671.53;4862456;29;20053;-58
2023/04/16 05:10:14;;;;;;;2.58;1.33;;;;;;;18.84;50.81;100673.25;4862249;29;20061;-58
2023/04/16 05:12:41;;;;;;;3.13;1.50;;;;;;;18.83;50.89;100674.22;4862242;29;20060;-58
2023/04/16 05:15:09;;;;;;;3.35;1.25;;;;;;;18.83;50.75;100680.44;4862363;29;20056;-58
2023/04/16 05:17:36;;;;;;;2.85;1.10;;;;;;;18.83;50.96;100687.63;4862089;29;20380;-58
2023/04/16 05:20:05;;;;;;;4.13;0.93;;;;;;;18.82;50.79;100692.16;4862183;29;20054;-58
2023/04/16 05:22:32;;;;;;;2.40;0.93;;;;;;;18.83;50.96;100687.63;4861702;29;20053;-58
2023/04/16 05:24:59;;;;;;;2.70;1.20;;;;;;;18.83;50.82;100684.97;4861900;29;20049;-58
2023/04/16 05:27:26;;;;;;;2.33;1.13;;;;;;;18.82;50.86;100683.25;4862278;29;20480;-58
2023/04/16 05:29:54;;;;;;;1.77;1.00;;;;;;;18.83;50.87;100682.28;4862044;29;20053;-59
2023/04/16 05:32:24;;;;;;;3.05;1.40;;;;;;;18.82;50.87;100685.94;4862015;29;20504;-59
2023/04/16 05:34:51;;;;;;;2.55;1.23;;;;;;;18.82;50.80;100688.63;4862189;29;20068;-59
2023/04/16 05:37:18;;;;;;;4.20;1.05;;;;;;;18.82;51.18;100688.63;4862137;29;20053;-59
2023/04/16 05:39:46;;;;;;;2.92;1.25;;;;;;;18.81;50.98;100686.94;4862191;29;20053;-59
2023/04/16 05:42:14;;;;;;;3.22;1.55;;;;;;;18.82;51.12;100683.25;4860864;29;20080;-59
2023/04/16 05:44:41;;;;;;;1.73;0.88;;;;;;;18.81;50.88;100687.78;4861876;29;20057;-59
2023/04/16 05:47:08;;;;;;;2.63;1.08;;;;;;;18.82;50.94;100697.53;4861581;29;20045;-59
2023/04/16 05:49:36;;;;;;;3.10;1.35;;;;;;;18.83;51.01;100703.72;4861557;29;20053;-59
2023/04/16 05:52:04;;;;;;;2.83;1.23;;;;;;;18.82;50.90;100702.03;4861736;29;20057;-58
2023/04/16 05:54:31;;;;;;;3.90;1.30;;;;;;;18.82;51.00;100710.09;4861589;29;20057;-59
2023/04/16 05:57:00;;;;;;;2.58;1.02;;;;;;;18.82;50.96;100718.97;4861172;29;20536;-59
2023/04/16 05:59:28;;;;;;;4.57;2.15;;;;;;;18.81;51.16;100717.28;4861420;29;20056;-60
2023/04/16 06:01:56;;;;;;;2.80;1.23;;;;;;;18.81;50.96;100716.44;4861562;29;20045;-59
2023/04/16 06:04:23;;;;;;;3.08;1.20;;;;;;;18.82;51.08;100720.81;4861600;29;20404;-59
2023/04/16 06:06:51;;;;;;;3.30;1.20;;;;;;;18.82;50.97;100723.50;4861539;29;20049;-59
2023/04/16 06:09:18;;;;;;;3.15;1.17;;;;;;;18.81;50.83;100727.16;4861453;29;20072;-59
2023/04/16 06:11:45;;;;;;;3.20;1.17;;;;;;;18.81;50.93;100727.16;4861565;29;20049;-59
2023/04/16 06:14:13;;;;;;;4.45;1.30;;;;;;;18.82;51.00;100731.53;4861393;29;20050;-59
2023/04/16 06:16:40;;;;;;;2.67;1.20;;;;;;;18.80;51.03;100734.38;4861382;29;20046;-59
2023/04/16 06:19:07;;;;;;;2.20;1.35;;;;;;;18.81;51.01;100735.22;4861077;29;20049;-59
2023/04/16 06:21:36;;;;;;;3.25;1.85;;;;;;;18.81;51.02;100738.75;4861336;29;20504;-58
2023/04/16 06:24:04;;;;;;;1.75;0.73;;;;;;;18.82;50.98;100742.28;4861389;29;20053;-58
2023/04/16 06:26:32;;;;;;;2.67;1.42;;;;;;;18.81;51.07;100738.75;4861314;29;20041;-59
2023/04/16 06:28:59;;;;;;;2.15;0.98;;;;;;;18.82;50.97;100747.63;4861234;29;20049;-59
2023/04/16 06:31:26;;;;;;;5.93;1.30;;;;;;;18.82;50.98;100753.00;4861383;29;20057;-59
2023/04/16 06:33:54;;;;;;;2.13;1.00;;;;;;;18.81;50.98;100757.50;4861108;29;20054;-59
2023/04/16 06:36:21;;;;;;;3.08;1.10;;;;;;;18.81;51.01;100765.56;4864835;29;20056;-59
2023/04/16 06:38:48;;;;;;;2.53;1.20;;;;;;;18.82;50.98;100767.25;4865191;29;20076;-58
2023/04/16 06:41:16;;;;;;;2.35;0.80;;;;;;;18.83;50.96;100770.78;4865069;29;20045;-59
2023/04/16 06:43:43;;;;;;;4.75;1.10;;;;;;;18.82;50.85;100774.44;4864956;29;20072;-59
2023/04/16 06:46:10;;;;;;;2.83;1.20;;;;;;;18.82;50.96;100769.94;4864833;29;20519;-59
2023/04/16 06:48:38;;;;;;;3.17;1.30;;;;;;;18.82;50.96;100767.25;4864942;29;20060;-59
2023/04/16 06:51:05;;;;;;;4.18;1.48;;;;;;;18.82;50.76;100775.31;4865034;29;20056;-58
2023/04/16 06:53:33;;;;;;;2.78;1.05;;;;;;;18.82;51.08;100767.25;4864890;29;20054;-58
2023/04/16 06:56:00;;;;;;;2.50;1.10;;;;;;;18.83;51.18;100770.78;4864819;29;20045;-59
2023/04/16 06:58:27;;;;;;;2.70;1.27;;;;;;;18.83;50.92;100770.78;4864557;29;20046;-59
2023/04/16 07:00:55;;;;;;;2.08;0.98;;;;;;;18.83;50.82;100778.84;4864808;29;20476;-58
2023/04/16 07:03:22;;;;;;;4.20;1.20;;;;;;;18.83;50.76;100773.47;4864623;29;20072;-58
2023/04/16 07:05:50;;;;;;;3.13;1.35;;;;;;;18.84;50.85;100777.84;4864599;29;20060;-58
2023/04/16 07:08:17;;;;;;;2.55;1.20;;;;;;;18.84;50.76;100777.84;4864515;29;20045;-58
2023/04/16 07:10:44;;;;;;;5.07;1.70;;;;;;;18.84;50.69;100783.22;4864573;29;20058;-59
2023/04/16 07:13:12;;;;;;;3.65;1.40;;;;;;;18.83;50.55;100779.69;4864456;29;20053;-59
2023/04/16 07:15:39;;;;;;;4.55;1.73;;;;;;;18.85;50.69;100782.25;4864553;29;20045;-59
2023/04/16 07:18:06;;;;;;;2.83;1.25;;;;;;;18.84;50.79;100781.41;4864342;29;20412;-59
2023/04/16 07:20:35;;;;;;;2.38;1.20;;;;;;;18.85;50.69;100779.56;4864290;29;20054;-58
2023/04/16 07:23:02;;;;;;;3.67;1.40;;;;;;;18.85;50.49;100776.88;4864153;29;20046;-59
2023/04/16 07:25:29;;;;;;;4.90;1.60;;;;;;;18.85;50.46;100779.56;4864223;29;20050;-58
2023/04/16 07:27:57;;;;;;;2.97;1.33;;;;;;;18.85;50.53;100776.88;4864141;29;20053;-58
2023/04/16 07:30:24;;;;;;;3.75;1.58;;;;;;;18.85;50.69;100772.38;4864343;29;20053;-59
2023/04/16 07:32:51;;;;;;;2.90;1.48;;;;;;;18.86;50.68;100773.22;4864088;29;20057;-59
2023/04/16 07:35:19;;;;;;;3.55;1.42;;;;;;;18.86;50.56;100775.91;4864142;29;20054;-58
2023/04/16 07:37:47;;;;;;;3.97;1.50;;;;;;;18.86;50.56;100779.44;4863002;29;20076;-58
2023/04/16 07:40:14;;;;;;;6.10;2.15;;;;;;;18.87;50.35;100774.91;4864097;29;20056;-62
2023/04/16 07:42:42;;;;;;;3.55;2.05;;;;;;;18.88;50.12;100771.25;4863821;29;20045;-62
2023/04/16 07:45:09;;;;;;;3.90;2.47;;;;;;;18.89;49.79;100778.31;4863932;29;20460;-62
2023/04/16 07:47:37;;;;;;;3.88;1.85;;;;;;;18.90;50.03;100774.66;4862967;29;20050;-62
2023/04/16 07:50:05;;;;;;;2.90;1.98;;;;;;;18.90;50.05;100777.34;4863941;29;20507;-57
2023/04/16 07:52:32;;;;;;;6.35;2.55;;;;;;;18.92;49.60;100783.41;4863779;29;20056;-58
2023/04/16 07:54:59;;;;;;;3.45;2.08;;;;;;;18.91;49.47;100781.72;4862834;29;20057;-57
2023/04/16 07:57:27;;;;;;;5.32;1.98;;;;;;;18.91;49.60;100782.56;4863444;29;20056;-58
2023/04/16 07:59:54;;;;;;;5.53;2.22;;;;;;;18.92;49.74;100792.34;4863812;29;20066;-62
2023/04/16 08:02:22;;;;;;;6.18;2.38;;;;;;;18.93;49.72;100790.50;4863668;29;20124;-62
2023/04/16 08:04:49;;;;;;;5.25;2.42;;;;;;;18.93;49.94;100790.50;4863589;29;20053;-60
2023/04/16 08:07:21;;;;;;;4.13;1.70;;;;;;;18.95;49.66;100793.88;4863667;29;20080;-64
2023/04/16 08:09:52;;;;;;;4.95;2.17;;;;;;;18.95;49.55;100797.41;4863228;29;20049;-62
2023/04/16 08:12:20;;;;;;;3.40;2.05;;;;;;;18.97;49.71;100797.31;4863337;29;20053;-62
2023/04/16 08:14:47;;;;;;;4.30;1.73;;;;;;;18.97;50.14;100795.47;4863325;29;20411;-62
2023/04/16 08:17:15;;;;;;;6.45;2.10;;;;;;;18.99;49.59;100798.00;4862979;29;20385;-61
2023/04/16 08:19:46;;;;;;;6.63;2.00;;;;;;;19.00;49.62;100803.25;4862916;29;20060;-61
2023/04/16 08:22:14;;;;;;;5.20;1.50;;;;;;;19.00;49.65;100808.63;4863034;29;20390;-62
2023/04/16 08:24:41;;;;;;;5.85;1.90;;;;;;;19.02;49.78;100811.16;4862938;29;20050;-61
2023/04/16 08:27:10;;;;;;;4.70;1.48;;;;;;;19.04;49.74;100801.19;4863582;29;20058;-62
2023/04/16 08:29:47;;;;;;;3.15;1.33;;;;;;;19.06;49.76;100806.41;4863393;29;20050;-62
2023/04/16 08:32:14;;;;;;;3.50;1.80;;;;;;;19.06;49.94;100806.41;4863098;29;20385;-61
2023/04/16 08:34:42;;;;;;;3.97;1.40;;;;;;;19.04;49.16;100803.84;4863170;29;20496;-60
2023/04/16 08:37:09;;;;;;;2.92;1.38;;;;;;;19.01;49.36;100809.47;4862932;29;20061;-60
2023/04/16 08:39:36;;;;;;;4.45;1.52;;;;;;;19.01;49.35;100806.78;4862941;29;20050;-60
2023/04/16 08:42:05;;;;;;;5.07;1.52;;;;;;;19.01;49.56;100810.31;4863040;29;20049;-60
2023/04/16 08:44:42;;;;;;;2.85;1.20;;;;;;;19.05;49.65;100807.38;4862474;29;20062;-59
2023/04/16 08:47:11;;;;;;;2.70;1.02;;;;;;;19.05;49.74;100813.59;4862619;29;20050;-60
2023/04/16 08:49:44;;;;;;;2.97;1.27;;;;;;;19.06;49.69;100817.97;4862864;29;20057;-61
2023/04/16 08:52:21;;;;;;;3.42;1.10;;;;;;;19.05;49.46;100808.22;4862926;29;20049;-61
2023/04/16 08:55:06;;;;;;;5.47;1.52;;;;;;;19.06;49.40;100811.75;4862433;29;20060;-59
2023/04/16 08:57:39;;;;;;;2.20;0.80;;;;;;;19.07;49.32;100817.00;4862306;29;20503;-59
2023/04/16 09:00:08;;;;;;;4.07;1.40;;;;;;;19.08;49.41;100812.47;4862767;29;20398;-59
2023/04/16 09:02:36;;;;;;;3.63;1.00;;;;;;;19.09;49.69;100816.88;4862483;29;20079;-62
2023/04/16 09:05:06;;;;;;;4.05;1.17;;;;;;;19.10;49.57;100814.06;4862462;29;20058;-65
2023/04/16 09:07:34;;;;;;;4.03;1.38;;;;;;;19.11;49.39;100806.84;4862318;29;20038;-63
2023/04/16 09:10:05;;;;;;;4.20;0.98;;;;;;;19.11;49.35;100813.06;4861866;29;20432;-63
2023/04/16 09:12:34;;;;;;;3.75;1.27;;;;;;;19.09;49.16;100798.09;4862329;29;20499;-60
2023/04/16 09:15:02;;;;;;;3.13;1.02;;;;;;;19.10;48.61;100816.75;4862414;29;20515;-62
2023/04/16 09:17:30;;;;;;;2.20;1.00;;;;;;;19.09;48.46;100812.34;4862258;29;20052;-59
2023/04/16 09:19:57;;;;;;;2.33;0.77;;;;;;;19.10;48.47;100818.56;4862118;29;20053;-56
2023/04/16 09:22:25;;;;;;;4.95;1.15;;;;;;;19.10;48.37;100814.06;4862135;29;20078;-57
2023/04/16 09:24:52;;;;;;;4.75;0.93;;;;;;;19.13;48.71;100818.31;4862082;29;20412;-56
2023/04/16 09:27:20;;;;;;;3.25;1.42;;;;;;;19.12;48.78;100820.16;4862264;29;20053;-56
2023/04/16 09:29:50;;;;;;;3.70;1.13;;;;;;;19.14;48.85;100814.66;4862357;29;20057;-56
2023/04/16 09:32:24;;;;;;;5.90;1.02;;;;;;;19.14;48.77;100803.91;4862164;29;20373;-57
2023/04/16 09:34:58;;;;;;;5.40;1.00;;;;;;;19.13;47.32;100813.78;4862149;29;20057;-57
2023/04/16 09:37:30;;;;;;;5.63;1.33;;;;;;;19.13;46.93;100821.84;4861884;29;20072;-58
2023/04/16 09:40:02;;;;;;;5.85;0.90;;;;;;;19.13;46.74;100818.31;4860650;29;20057;-57
2023/04/16 09:42:43;;;;;;;6.43;1.73;;;;;;;19.13;46.84;100807.59;4860682;29;20060;-61
2023/04/16 09:45:13;;;;;;;4.43;1.00;;;;;;;19.14;46.32;100814.66;4861766;29;20373;-59
2023/04/16 09:47:42;;;;;;;2.10;0.85;;;;;;;19.13;45.88;100824.53;4861894;29;20049;-61
2023/04/16 09:50:15;;;;;;;2.38;1.00;;;;;;;19.12;45.93;100817.47;4860533;29;20049;-60
2023/04/16 09:52:48;;;;;;;2.25;1.00;;;;;;;19.13;46.78;100823.69;4861448;29;20058;-59
2023/04/16 09:55:15;;;;;;;4.05;1.02;;;;;;;19.13;47.15;100824.53;4861559;29;20060;-58
2023/04/16 09:57:43;;;;;;;4.80;0.80;;;;;;;19.14;47.07;100822.69;4860639;29;20515;-58
2023/04/16 10:00:11;;;;;;;6.50;1.00;;;;;;;19.15;47.26;100827.91;4861548;29;20053;-58
2023/04/16 10:02:41;;;;;;;3.00;1.52;;;;;;;19.17;47.60;100809.88;4861191;29;20053;-58
2023/04/16 10:05:15;;;;;;;5.43;1.23;;;;;;;19.19;47.53;100812.41;4861111;29;20400;-58
2023/04/16 10:07:43;;;;;;;2.85;1.05;;;;;;;19.20;47.89;100816.78;4860289;29;20076;-58
2023/04/16 10:10:10;;;;;;;3.75;1.25;;;;;;;19.20;48.00;100814.97;4860525;29;20401;-57
2023/04/16 10:12:38;;;;;;;3.63;1.10;;;;;;;19.21;48.07;100811.31;4860282;29;20528;-58
2023/04/16 10:15:06;;;;;;;4.20;1.27;;;;;;;19.21;48.17;100824.72;4861079;29;20049;-57
2023/04/16 10:17:34;;;;;;;6.35;0.98;;;;;;;19.21;48.08;100814.00;4861167;29;20050;-58
2023/04/16 10:20:02;;;;;;;6.68;1.08;;;;;;;19.20;48.16;100817.66;4861208;29;20046;-59
2023/04/16 10:22:29;;;;;;;2.25;0.82;;;;;;;19.21;48.26;100811.31;4861048;29;20049;-59
2023/04/16 10:24:57;;;;;;;3.30;1.15;;;;;;;19.21;48.24;100814.00;4861111;29;20049;-59
2023/04/16 10:27:25;;;;;;;3.10;0.90;;;;;;;19.24;48.31;100820.91;4860673;29;20057;-60
2023/04/16 10:29:53;;;;;;;3.20;1.13;;;;;;;19.22;46.62;100818.38;4860847;29;20388;-56
2023/04/16 10:32:22;;;;;;;3.33;1.30;;;;;;;19.19;45.44;100821.31;4860813;29;20492;-57
2023/04/16 10:34:49;;;;;;;4.90;1.10;;;;;;;19.15;44.75;100809.13;4860931;29;20062;-58
2023/04/16 10:37:17;;;;;;;3.70;1.65;;;;;;;19.12;44.63;100813.91;4860999;29;20069;-57
2023/04/16 10:39:44;;;;;;;2.53;1.10;;;;;;;19.07;44.15;100808.94;4860720;29;20052;-59
2023/04/16 10:42:12;;;;;;;2.15;0.90;;;;;;;19.05;44.73;100812.75;4860552;29;20053;-60
2023/04/16 10:44:40;;;;;;;2.60;0.90;;;;;;;19.05;45.58;100804.69;4860957;29;20061;-59
2023/04/16 10:47:12;;;;;;;2.05;1.08;;;;;;;19.07;46.00;100808.94;4860414;29;20060;-59
2023/04/16 10:49:42;;;;;;;2.15;0.82;;;;;;;19.08;46.35;100807.97;4860708;29;20072;-58
2023/04/16 10:52:19;;;;;;;2.30;0.77;;;;;;;19.11;46.74;100798.78;4860977;29;20064;-58
2023/04/16 10:54:49;;;;;;;2.25;0.60;;;;;;;19.13;46.83;100799.53;4860613;29;20057;-57
2023/04/16 10:57:18;;;;;;;2.15;0.60;;;;;;;19.14;47.03;100795.88;4858937;29;20057;-58
2023/04/16 10:59:47;;;;;;;2.15;0.70;;;;;;;19.15;47.04;100795.72;4860605;29;20551;-59
2023/04/16 11:02:16;;;;;;;2.25;0.80;;;;;;;19.16;46.98;100800.13;4860519;29;20050;-60
2023/04/16 11:04:46;;;;;;;2.95;0.80;;;;;;;19.17;47.07;100799.13;4860792;29;20050;-60
2023/04/16 11:07:16;;;;;;;3.25;1.10;;;;;;;19.19;47.16;100802.53;4860904;29;20060;-60
2023/04/16 11:10:01;;;;;;;1.77;0.70;;;;;;;19.20;47.20;100798.00;4860249;29;20065;-60
2023/04/16 11:12:28;;;;;;;2.72;0.80;;;;;;;19.22;47.38;100790.69;4861277;29;20065;-60
2023/04/16 11:15:05;;;;;;;2.15;0.68;;;;;;;19.23;47.25;100795.06;4860569;29;20049;-60
2023/04/16 11:17:39;;;;;;;1.98;0.70;;;;;;;19.23;47.27;100790.53;4860867;29;20060;-60
2023/04/16 11:20:13;;;;;;;2.60;0.82;;;;;;;19.24;47.34;100789.59;4860605;29;20052;-58
2023/04/16 11:22:50;;;;;;;2.78;1.02;;;;;;;19.24;47.46;100792.25;4863422;29;20049;-57
2023/04/16 11:25:24;;;;;;;4.85;0.90;;;;;;;19.26;48.24;100795.66;4863999;29;20400;-55
2023/04/16 11:27:52;;;;;;;3.63;1.13;;;;;;;19.27;47.89;100788.44;4864121;29;20465;-57
2023/04/16 11:30:33;;;;;;;3.65;1.00;;;;;;;19.26;48.42;100786.75;4864097;29;20049;-57